SWA0000 KBNA-KMCO
Flight info
| Callsign | SWA0000 |
|---|---|
| Flight time | 1h 24m |
| Altitude | 37000 |
| Route | TIPPN4 DENST THRSR ZJAYX GRNCH5 |
| Aircraft | B738/M-SADE2E3GIJ4RWZ/LB1D1 |
Departure
| Time | 2026-05-06 21:19 |
|---|---|
| Airport | Nashville International Airport (KBNA) |
Arrival
| Time | 2026-05-06 22:44 |
|---|---|
| Airport | Orlando International Airport (KMCO) |
| Time | Latitude | Longitude | Altitude | Speed | Heading |
|---|---|---|---|---|---|
| 2026-05-06 20:56 | 36.12853 | -86.66649 | 606 ft | 0 kts | 41° |
| 2026-05-06 21:12 | 36.12852 | -86.66650 | 606 ft | 1 kts | 42° |
| 2026-05-06 21:12 | 36.12841 | -86.66662 | 606 ft | 2 kts | 41° |
| 2026-05-06 21:12 | 36.12831 | -86.66676 | 606 ft | 2 kts | 65° |
| 2026-05-06 21:12 | 36.12826 | -86.66694 | 606 ft | 2 kts | 87° |
| 2026-05-06 21:13 | 36.12828 | -86.66712 | 606 ft | 2 kts | 110° |
| 2026-05-06 21:13 | 36.12836 | -86.66728 | 606 ft | 1 kts | 133° |
| 2026-05-06 21:13 | 36.12841 | -86.66734 | 606 ft | 1 kts | 141° |
| 2026-05-06 21:13 | 36.12843 | -86.66736 | 606 ft | 0 kts | 139° |
| 2026-05-06 21:15 | 36.12841 | -86.66734 | 606 ft | 1 kts | 140° |
| 2026-05-06 21:15 | 36.12823 | -86.66721 | 606 ft | 4 kts | 154° |
| 2026-05-06 21:16 | 36.12773 | -86.66713 | 606 ft | 9 kts | 189° |
| 2026-05-06 21:16 | 36.12700 | -86.66765 | 606 ft | 14 kts | 220° |
| 2026-05-06 21:16 | 36.12608 | -86.66863 | 606 ft | 19 kts | 216° |
| 2026-05-06 21:16 | 36.12505 | -86.66939 | 606 ft | 15 kts | 208° |
| 2026-05-06 21:17 | 36.12414 | -86.66995 | 606 ft | 14 kts | 194° |
| 2026-05-06 21:17 | 36.12329 | -86.66924 | 606 ft | 14 kts | 134° |
| 2026-05-06 21:17 | 36.12255 | -86.66827 | 606 ft | 16 kts | 133° |
| 2026-05-06 21:17 | 36.12183 | -86.66740 | 606 ft | 11 kts | 151° |
| 2026-05-06 21:18 | 36.12171 | -86.66735 | 606 ft | 3 kts | 168° |
| 2026-05-06 21:18 | 36.12133 | -86.66746 | 606 ft | 8 kts | 213° |
| 2026-05-06 21:18 | 36.12082 | -86.66813 | 606 ft | 15 kts | 254° |
| 2026-05-06 21:18 | 36.12209 | -86.67025 | 606 ft | 57 kts | 314° |
| 2026-05-06 21:19 | 36.12624 | -86.67569 | 606 ft | 115 kts | 311° |
| 2026-05-06 21:19 | 36.13276 | -86.68418 | 606 ft | 159 kts | 313° |
| 2026-05-06 21:19 | 36.14104 | -86.69402 | 1036 ft | 165 kts | 321° |
| 2026-05-06 21:19 | 36.14949 | -86.70280 | 1768 ft | 156 kts | 317° |
| 2026-05-06 21:20 | 36.15674 | -86.71311 | 2162 ft | 167 kts | 311° |
| 2026-05-06 21:20 | 36.16429 | -86.72458 | 2585 ft | 176 kts | 311° |
| 2026-05-06 21:20 | 36.17251 | -86.73673 | 2939 ft | 191 kts | 312° |
| 2026-05-06 21:20 | 36.18144 | -86.74974 | 3335 ft | 205 kts | 311° |
| 2026-05-06 21:21 | 36.19081 | -86.76347 | 3762 ft | 216 kts | 306° |
| 2026-05-06 21:21 | 36.19598 | -86.78129 | 4166 ft | 230 kts | 272° |
| 2026-05-06 21:21 | 36.19110 | -86.80003 | 4868 ft | 235 kts | 236° |
| 2026-05-06 21:21 | 36.17801 | -86.81183 | 5556 ft | 243 kts | 202° |
| 2026-05-06 21:22 | 36.16058 | -86.81265 | 6167 ft | 261 kts | 171° |
| 2026-05-06 21:22 | 36.14429 | -86.80166 | 6672 ft | 281 kts | 144° |
| 2026-05-06 21:22 | 36.12978 | -86.78468 | 7167 ft | 293 kts | 142° |
| 2026-05-06 21:22 | 36.11375 | -86.76841 | 7799 ft | 295 kts | 150° |
| 2026-05-06 21:23 | 36.09639 | -86.75529 | 8453 ft | 296 kts | 158° |
| 2026-05-06 21:23 | 36.07796 | -86.74396 | 9125 ft | 298 kts | 162° |
| 2026-05-06 21:23 | 36.05890 | -86.73310 | 9841 ft | 301 kts | 162° |
| 2026-05-06 21:23 | 36.03981 | -86.72221 | 10461 ft | 307 kts | 163° |
| 2026-05-06 21:24 | 36.02016 | -86.71084 | 10957 ft | 319 kts | 163° |
| 2026-05-06 21:24 | 35.99963 | -86.69883 | 11395 ft | 333 kts | 162° |
| 2026-05-06 21:24 | 35.97815 | -86.68615 | 11866 ft | 345 kts | 162° |
| 2026-05-06 21:24 | 35.95623 | -86.67319 | 12264 ft | 359 kts | 162° |
| 2026-05-06 21:25 | 35.93341 | -86.65965 | 12985 ft | 362 kts | 162° |
| 2026-05-06 21:25 | 35.91070 | -86.64611 | 13755 ft | 363 kts | 163° |
| 2026-05-06 21:25 | 35.88786 | -86.63253 | 14470 ft | 367 kts | 163° |
| 2026-05-06 21:25 | 35.86463 | -86.61883 | 14919 ft | 376 kts | 163° |
| 2026-05-06 21:26 | 35.84067 | -86.60471 | 14970 ft | 378 kts | 163° |
| 2026-05-06 21:26 | 35.81695 | -86.59064 | 14967 ft | 374 kts | 164° |
| 2026-05-06 21:26 | 35.79361 | -86.57680 | 14970 ft | 375 kts | 164° |
| 2026-05-06 21:26 | 35.76988 | -86.56278 | 14965 ft | 374 kts | 164° |
| 2026-05-06 21:27 | 35.74659 | -86.54901 | 14966 ft | 373 kts | 163° |
| 2026-05-06 21:27 | 35.72300 | -86.53510 | 14959 ft | 375 kts | 163° |
| 2026-05-06 21:27 | 35.69936 | -86.52117 | 14950 ft | 370 kts | 163° |
| 2026-05-06 21:27 | 35.67580 | -86.50732 | 15028 ft | 382 kts | 164° |
| 2026-05-06 21:28 | 35.65218 | -86.49348 | 15841 ft | 381 kts | 165° |
| 2026-05-06 21:28 | 35.62813 | -86.47933 | 16541 ft | 384 kts | 165° |
| 2026-05-06 21:28 | 35.60371 | -86.46532 | 17093 ft | 389 kts | 167° |
| 2026-05-06 21:28 | 35.57863 | -86.45341 | 17798 ft | 385 kts | 173° |
| 2026-05-06 21:29 | 35.55277 | -86.44385 | 18349 ft | 387 kts | 176° |
| 2026-05-06 21:29 | 35.52652 | -86.43562 | 18923 ft | 389 kts | 178° |
| 2026-05-06 21:29 | 35.50041 | -86.42787 | 19575 ft | 391 kts | 178° |
| 2026-05-06 21:29 | 35.47384 | -86.42003 | 20144 ft | 396 kts | 178° |
| 2026-05-06 21:30 | 35.44670 | -86.41193 | 20586 ft | 404 kts | 178° |
| 2026-05-06 21:30 | 35.41899 | -86.40261 | 20938 ft | 421 kts | 172° |
| 2026-05-06 21:30 | 35.39131 | -86.38857 | 21405 ft | 438 kts | 162° |
| 2026-05-06 21:30 | 35.36500 | -86.36888 | 22160 ft | 447 kts | 155° |
| 2026-05-06 21:31 | 35.34022 | -86.34603 | 22688 ft | 455 kts | 151° |
| 2026-05-06 21:31 | 35.31530 | -86.32075 | 23129 ft | 463 kts | 149° |
| 2026-05-06 21:31 | 35.29103 | -86.29477 | 23643 ft | 466 kts | 148° |
| 2026-05-06 21:31 | 35.26664 | -86.26796 | 24100 ft | 472 kts | 147° |
| 2026-05-06 21:32 | 35.24222 | -86.24086 | 24509 ft | 476 kts | 147° |
| 2026-05-06 21:32 | 35.19273 | -86.18633 | 25438 ft | 481 kts | 148° |
| 2026-05-06 21:32 | 35.16776 | -86.15915 | 26022 ft | 481 kts | 148° |
| 2026-05-06 21:33 | 35.14290 | -86.13213 | 26702 ft | 478 kts | 148° |
| 2026-05-06 21:33 | 35.11827 | -86.10513 | 27364 ft | 475 kts | 147° |
| 2026-05-06 21:33 | 35.09368 | -86.07819 | 27916 ft | 473 kts | 148° |
| 2026-05-06 21:33 | 35.06924 | -86.05180 | 28412 ft | 472 kts | 148° |
| 2026-05-06 21:34 | 35.04442 | -86.02512 | 28905 ft | 472 kts | 149° |
| 2026-05-06 21:34 | 35.01972 | -85.99864 | 29377 ft | 472 kts | 148° |
| 2026-05-06 21:34 | 34.99515 | -85.97232 | 29929 ft | 469 kts | 148° |
| 2026-05-06 21:34 | 34.97087 | -85.94629 | 30462 ft | 467 kts | 149° |
| 2026-05-06 21:35 | 34.94633 | -85.92011 | 31003 ft | 464 kts | 149° |
| 2026-05-06 21:35 | 34.92186 | -85.89420 | 31327 ft | 467 kts | 149° |
| 2026-05-06 21:35 | 34.89677 | -85.86762 | 31654 ft | 469 kts | 149° |
| 2026-05-06 21:35 | 34.87199 | -85.84135 | 31915 ft | 473 kts | 149° |
| 2026-05-06 21:36 | 34.84697 | -85.81476 | 32231 ft | 475 kts | 149° |
| 2026-05-06 21:36 | 34.82234 | -85.78845 | 32915 ft | 468 kts | 149° |
| 2026-05-06 21:36 | 34.79816 | -85.76253 | 33596 ft | 461 kts | 149° |
| 2026-05-06 21:36 | 34.77436 | -85.73701 | 34164 ft | 456 kts | 149° |
| 2026-05-06 21:37 | 34.75032 | -85.71089 | 34409 ft | 461 kts | 148° |
| 2026-05-06 21:37 | 34.72659 | -85.68415 | 34551 ft | 468 kts | 148° |
| 2026-05-06 21:37 | 34.70296 | -85.65700 | 34705 ft | 472 kts | 147° |
| 2026-05-06 21:37 | 34.67913 | -85.62924 | 35096 ft | 472 kts | 146° |
| 2026-05-06 21:38 | 34.65551 | -85.60160 | 35282 ft | 475 kts | 147° |
| 2026-05-06 21:38 | 34.63164 | -85.57375 | 35584 ft | 476 kts | 147° |
| 2026-05-06 21:38 | 34.60782 | -85.54602 | 35826 ft | 477 kts | 147° |
| 2026-05-06 21:38 | 34.58384 | -85.51814 | 36297 ft | 473 kts | 147° |
| 2026-05-06 21:39 | 34.55991 | -85.49041 | 36466 ft | 476 kts | 147° |
| 2026-05-06 21:39 | 34.53600 | -85.46285 | 36768 ft | 476 kts | 148° |
| 2026-05-06 21:39 | 34.51210 | -85.43541 | 36934 ft | 478 kts | 148° |
| 2026-05-06 21:39 | 34.48783 | -85.40764 | 36938 ft | 481 kts | 148° |
| 2026-05-06 21:40 | 34.43915 | -85.35195 | 36935 ft | 483 kts | 147° |
| 2026-05-06 21:40 | 34.39014 | -85.29584 | 36922 ft | 477 kts | 148° |
| 2026-05-06 21:41 | 34.34197 | -85.24068 | 36931 ft | 477 kts | 148° |
| 2026-05-06 21:41 | 34.29348 | -85.18536 | 36929 ft | 481 kts | 148° |
| 2026-05-06 21:42 | 34.24479 | -85.12997 | 36930 ft | 476 kts | 147° |
| 2026-05-06 21:42 | 34.19653 | -85.07519 | 36931 ft | 479 kts | 148° |
| 2026-05-06 21:43 | 34.14785 | -85.01995 | 36943 ft | 481 kts | 148° |
| 2026-05-06 21:43 | 34.09843 | -84.96413 | 36965 ft | 488 kts | 147° |
| 2026-05-06 21:44 | 34.04835 | -84.90763 | 36959 ft | 495 kts | 147° |
| 2026-05-06 21:44 | 33.99790 | -84.85056 | 36977 ft | 502 kts | 147° |
| 2026-05-06 21:45 | 33.94752 | -84.79349 | 36975 ft | 494 kts | 147° |
| 2026-05-06 21:45 | 33.89724 | -84.73669 | 36977 ft | 495 kts | 147° |
| 2026-05-06 21:46 | 33.84645 | -84.67979 | 36976 ft | 501 kts | 146° |
| 2026-05-06 21:46 | 33.79547 | -84.62277 | 36976 ft | 499 kts | 147° |
| 2026-05-06 21:47 | 33.74504 | -84.56627 | 36973 ft | 497 kts | 147° |
| 2026-05-06 21:47 | 33.69414 | -84.50934 | 36973 ft | 500 kts | 146° |
| 2026-05-06 21:48 | 33.64302 | -84.45304 | 36971 ft | 497 kts | 149° |
| 2026-05-06 21:48 | 33.58725 | -84.40656 | 36975 ft | 478 kts | 162° |
| 2026-05-06 21:49 | 33.52850 | -84.37099 | 36979 ft | 470 kts | 166° |
| 2026-05-06 21:49 | 33.46841 | -84.33724 | 36983 ft | 475 kts | 166° |
| 2026-05-06 21:50 | 33.40883 | -84.30337 | 36986 ft | 473 kts | 165° |
| 2026-05-06 21:50 | 33.34965 | -84.26894 | 36983 ft | 472 kts | 165° |
| 2026-05-06 21:51 | 33.29061 | -84.23422 | 36980 ft | 472 kts | 165° |
| 2026-05-06 21:51 | 33.23162 | -84.19935 | 36971 ft | 474 kts | 165° |
| 2026-05-06 21:52 | 33.17221 | -84.16428 | 36957 ft | 475 kts | 164° |
| 2026-05-06 21:52 | 33.11234 | -84.12892 | 36959 ft | 476 kts | 164° |
| 2026-05-06 21:53 | 33.05301 | -84.09380 | 36957 ft | 473 kts | 164° |
| 2026-05-06 21:53 | 32.99431 | -84.05906 | 36961 ft | 473 kts | 164° |
| 2026-05-06 21:54 | 32.93514 | -84.02425 | 36961 ft | 473 kts | 164° |
| 2026-05-06 21:54 | 32.87569 | -83.98933 | 36957 ft | 475 kts | 163° |
| 2026-05-06 21:55 | 32.81621 | -83.95443 | 36957 ft | 473 kts | 163° |
| 2026-05-06 21:55 | 32.75746 | -83.91997 | 36970 ft | 474 kts | 163° |
| 2026-05-06 21:56 | 32.69802 | -83.88517 | 36964 ft | 474 kts | 163° |
| 2026-05-06 21:56 | 32.63873 | -83.85049 | 36975 ft | 473 kts | 163° |
| 2026-05-06 21:57 | 32.57988 | -83.81620 | 36971 ft | 472 kts | 163° |
| 2026-05-06 21:57 | 32.52054 | -83.78164 | 36978 ft | 476 kts | 163° |
| 2026-05-06 21:58 | 32.46121 | -83.74706 | 36977 ft | 471 kts | 163° |
| 2026-05-06 21:58 | 32.40198 | -83.71265 | 36977 ft | 476 kts | 163° |
| 2026-05-06 21:59 | 32.34214 | -83.67787 | 36975 ft | 473 kts | 163° |
| 2026-05-06 21:59 | 32.28300 | -83.64360 | 36967 ft | 472 kts | 163° |
| 2026-05-06 22:00 | 32.22413 | -83.60958 | 36976 ft | 474 kts | 163° |
| 2026-05-06 22:00 | 32.16487 | -83.57536 | 36975 ft | 473 kts | 163° |
| 2026-05-06 22:01 | 32.10538 | -83.54108 | 36979 ft | 474 kts | 163° |
| 2026-05-06 22:01 | 32.04635 | -83.50707 | 36978 ft | 472 kts | 163° |
| 2026-05-06 22:02 | 31.98714 | -83.47301 | 36982 ft | 474 kts | 163° |
| 2026-05-06 22:02 | 31.92759 | -83.43883 | 36982 ft | 474 kts | 163° |
| 2026-05-06 22:03 | 31.86821 | -83.40478 | 36982 ft | 472 kts | 163° |
| 2026-05-06 22:03 | 31.80897 | -83.37090 | 36990 ft | 476 kts | 163° |
| 2026-05-06 22:04 | 31.74957 | -83.33691 | 36995 ft | 472 kts | 163° |
| 2026-05-06 22:04 | 31.69019 | -83.30297 | 37003 ft | 473 kts | 163° |
| 2026-05-06 22:05 | 31.63100 | -83.26927 | 37002 ft | 474 kts | 163° |
| 2026-05-06 22:05 | 31.57165 | -83.23573 | 36993 ft | 473 kts | 163° |
| 2026-05-06 22:06 | 31.51195 | -83.20238 | 36987 ft | 474 kts | 163° |
| 2026-05-06 22:06 | 31.45265 | -83.16924 | 36982 ft | 470 kts | 164° |
| 2026-05-06 22:07 | 31.39340 | -83.13623 | 36979 ft | 474 kts | 163° |
| 2026-05-06 22:07 | 31.33352 | -83.10288 | 36978 ft | 474 kts | 163° |
| 2026-05-06 22:08 | 31.27414 | -83.06978 | 36981 ft | 473 kts | 163° |
| 2026-05-06 22:08 | 31.21466 | -83.03666 | 36672 ft | 467 kts | 163° |
| 2026-05-06 22:09 | 31.18555 | -83.02045 | 35924 ft | 469 kts | 163° |
| 2026-05-06 22:09 | 31.15552 | -83.00382 | 34945 ft | 475 kts | 163° |
| 2026-05-06 22:09 | 31.12555 | -82.98730 | 33948 ft | 481 kts | 162° |
| 2026-05-06 22:09 | 31.09550 | -82.97073 | 33240 ft | 480 kts | 162° |
| 2026-05-06 22:10 | 31.06539 | -82.95403 | 32985 ft | 476 kts | 162° |
| 2026-05-06 22:10 | 31.03506 | -82.93720 | 32988 ft | 482 kts | 162° |
| 2026-05-06 22:10 | 30.97347 | -82.90320 | 32988 ft | 492 kts | 162° |
| 2026-05-06 22:11 | 30.91208 | -82.86861 | 32990 ft | 492 kts | 158° |
| 2026-05-06 22:11 | 30.85336 | -82.82503 | 32989 ft | 501 kts | 150° |
| 2026-05-06 22:12 | 30.81580 | -82.79236 | 32980 ft | 501 kts | 148° |
| 2026-05-06 22:12 | 30.74279 | -82.72517 | 32981 ft | 501 kts | 147° |
| 2026-05-06 22:13 | 30.68767 | -82.67449 | 32981 ft | 502 kts | 147° |
| 2026-05-06 22:13 | 30.63257 | -82.62442 | 32981 ft | 501 kts | 147° |
| 2026-05-06 22:14 | 30.57793 | -82.57516 | 32542 ft | 495 kts | 147° |
| 2026-05-06 22:14 | 30.55063 | -82.55063 | 31834 ft | 497 kts | 147° |
| 2026-05-06 22:14 | 30.52312 | -82.52599 | 31069 ft | 499 kts | 147° |
| 2026-05-06 22:15 | 30.49566 | -82.50138 | 30322 ft | 501 kts | 147° |
| 2026-05-06 22:15 | 30.46803 | -82.47662 | 29604 ft | 501 kts | 147° |
| 2026-05-06 22:15 | 30.44027 | -82.45176 | 28797 ft | 503 kts | 147° |
| 2026-05-06 22:15 | 30.41256 | -82.42696 | 28098 ft | 501 kts | 147° |
| 2026-05-06 22:16 | 30.38497 | -82.40227 | 27344 ft | 501 kts | 146° |
| 2026-05-06 22:16 | 30.35733 | -82.37753 | 26541 ft | 502 kts | 146° |
| 2026-05-06 22:16 | 30.32991 | -82.35303 | 25746 ft | 502 kts | 146° |
| 2026-05-06 22:16 | 30.30219 | -82.32828 | 24932 ft | 502 kts | 146° |
| 2026-05-06 22:17 | 30.27475 | -82.30381 | 24423 ft | 493 kts | 146° |
| 2026-05-06 22:17 | 30.24760 | -82.27969 | 23996 ft | 485 kts | 147° |
| 2026-05-06 22:17 | 30.22048 | -82.25697 | 23985 ft | 481 kts | 150° |
| 2026-05-06 22:17 | 30.19096 | -82.23791 | 23982 ft | 483 kts | 162° |
| 2026-05-06 22:18 | 30.15912 | -82.22606 | 23986 ft | 476 kts | 172° |
| 2026-05-06 22:18 | 30.12682 | -82.21806 | 23983 ft | 472 kts | 175° |
| 2026-05-06 22:18 | 30.09472 | -82.21175 | 23984 ft | 472 kts | 177° |
| 2026-05-06 22:18 | 30.06188 | -82.20602 | 23982 ft | 471 kts | 178° |
| 2026-05-06 22:19 | 30.02946 | -82.20055 | 23982 ft | 470 kts | 178° |
| 2026-05-06 22:19 | 29.99687 | -82.19495 | 23985 ft | 468 kts | 177° |
| 2026-05-06 22:19 | 29.96447 | -82.18926 | 23993 ft | 471 kts | 177° |
| 2026-05-06 22:19 | 29.93223 | -82.18343 | 23998 ft | 470 kts | 177° |
| 2026-05-06 22:20 | 29.89963 | -82.17737 | 24003 ft | 470 kts | 177° |
| 2026-05-06 22:20 | 29.86736 | -82.17121 | 24007 ft | 472 kts | 176° |
| 2026-05-06 22:20 | 29.83471 | -82.16488 | 24009 ft | 473 kts | 176° |
| 2026-05-06 22:20 | 29.80214 | -82.15848 | 24016 ft | 472 kts | 176° |
| 2026-05-06 22:21 | 29.76989 | -82.15210 | 23971 ft | 470 kts | 176° |
| 2026-05-06 22:21 | 29.73749 | -82.14562 | 23515 ft | 463 kts | 176° |
| 2026-05-06 22:21 | 29.70607 | -82.13935 | 22778 ft | 462 kts | 176° |
| 2026-05-06 22:21 | 29.67438 | -82.13303 | 22127 ft | 458 kts | 175° |
| 2026-05-06 22:22 | 29.64299 | -82.12676 | 21540 ft | 452 kts | 175° |
| 2026-05-06 22:22 | 29.61235 | -82.12065 | 20949 ft | 448 kts | 175° |
| 2026-05-06 22:22 | 29.58159 | -82.11453 | 20324 ft | 444 kts | 175° |
| 2026-05-06 22:22 | 29.55122 | -82.10848 | 19704 ft | 440 kts | 175° |
| 2026-05-06 22:23 | 29.52097 | -82.10248 | 19109 ft | 435 kts | 174° |
| 2026-05-06 22:23 | 29.49144 | -82.09661 | 18479 ft | 432 kts | 174° |
| 2026-05-06 22:23 | 29.46196 | -82.09074 | 17913 ft | 427 kts | 174° |
| 2026-05-06 22:23 | 29.43290 | -82.08496 | 17294 ft | 422 kts | 174° |
| 2026-05-06 22:24 | 29.40417 | -82.07924 | 17043 ft | 413 kts | 173° |
| 2026-05-06 22:24 | 29.37553 | -82.07355 | 17026 ft | 418 kts | 174° |
| 2026-05-06 22:24 | 29.34652 | -82.06781 | 17017 ft | 420 kts | 173° |
| 2026-05-06 22:24 | 29.31812 | -82.06016 | 17003 ft | 421 kts | 166° |
| 2026-05-06 22:25 | 29.29034 | -82.04855 | 17015 ft | 424 kts | 160° |
| 2026-05-06 22:25 | 29.26339 | -82.03421 | 16826 ft | 419 kts | 156° |
| 2026-05-06 22:25 | 29.23773 | -82.01881 | 16217 ft | 417 kts | 153° |
| 2026-05-06 22:25 | 29.21255 | -82.00273 | 15542 ft | 416 kts | 152° |
| 2026-05-06 22:26 | 29.18723 | -81.98620 | 14920 ft | 413 kts | 152° |
| 2026-05-06 22:26 | 29.16245 | -81.97002 | 14321 ft | 409 kts | 152° |
| 2026-05-06 22:26 | 29.13775 | -81.95405 | 13820 ft | 403 kts | 152° |
| 2026-05-06 22:26 | 29.11349 | -81.93851 | 13608 ft | 387 kts | 152° |
| 2026-05-06 22:27 | 29.09023 | -81.92374 | 13431 ft | 373 kts | 152° |
| 2026-05-06 22:27 | 29.06826 | -81.90842 | 13121 ft | 365 kts | 145° |
| 2026-05-06 22:27 | 29.04863 | -81.89045 | 12722 ft | 361 kts | 139° |
| 2026-05-06 22:27 | 29.03010 | -81.87103 | 12248 ft | 358 kts | 136° |
| 2026-05-06 22:28 | 29.01242 | -81.85146 | 11827 ft | 353 kts | 136° |
| 2026-05-06 22:28 | 28.99483 | -81.83182 | 11379 ft | 349 kts | 136° |
| 2026-05-06 22:28 | 28.97832 | -81.81164 | 11001 ft | 344 kts | 129° |
| 2026-05-06 22:28 | 28.96351 | -81.79009 | 10963 ft | 342 kts | 127° |
| 2026-05-06 22:29 | 28.94891 | -81.76844 | 10971 ft | 346 kts | 127° |
| 2026-05-06 22:29 | 28.93430 | -81.74667 | 10951 ft | 345 kts | 127° |
| 2026-05-06 22:29 | 28.91951 | -81.72465 | 10950 ft | 345 kts | 127° |
| 2026-05-06 22:29 | 28.90486 | -81.70288 | 10958 ft | 346 kts | 127° |
| 2026-05-06 22:30 | 28.89012 | -81.68102 | 10952 ft | 346 kts | 127° |
| 2026-05-06 22:30 | 28.87556 | -81.65944 | 10978 ft | 345 kts | 127° |
| 2026-05-06 22:30 | 28.86072 | -81.63748 | 10959 ft | 346 kts | 127° |
| 2026-05-06 22:30 | 28.84613 | -81.61589 | 10972 ft | 346 kts | 127° |
| 2026-05-06 22:31 | 28.83140 | -81.59412 | 10954 ft | 345 kts | 127° |
| 2026-05-06 22:31 | 28.81683 | -81.57261 | 10821 ft | 334 kts | 127° |
| 2026-05-06 22:31 | 28.80282 | -81.55193 | 10647 ft | 320 kts | 127° |
| 2026-05-06 22:31 | 28.78960 | -81.53231 | 10558 ft | 307 kts | 126° |
| 2026-05-06 22:32 | 28.77750 | -81.51250 | 10383 ft | 297 kts | 122° |
| 2026-05-06 22:32 | 28.76654 | -81.49276 | 10089 ft | 292 kts | 121° |
| 2026-05-06 22:32 | 28.75592 | -81.47317 | 9735 ft | 291 kts | 121° |
| 2026-05-06 22:32 | 28.74518 | -81.45356 | 9409 ft | 287 kts | 122° |
| 2026-05-06 22:33 | 28.73451 | -81.43436 | 9032 ft | 286 kts | 121° |
| 2026-05-06 22:33 | 28.72667 | -81.41383 | 8636 ft | 285 kts | 102° |
| 2026-05-06 22:33 | 28.72432 | -81.39156 | 8309 ft | 281 kts | 92° |
| 2026-05-06 22:33 | 28.72324 | -81.36958 | 7950 ft | 279 kts | 93° |
| 2026-05-06 22:34 | 28.72153 | -81.34757 | 7589 ft | 278 kts | 96° |
| 2026-05-06 22:34 | 28.71901 | -81.32567 | 7242 ft | 277 kts | 98° |
| 2026-05-06 22:34 | 28.71601 | -81.30412 | 6888 ft | 275 kts | 99° |
| 2026-05-06 22:34 | 28.71278 | -81.28272 | 6511 ft | 275 kts | 99° |
| 2026-05-06 22:35 | 28.70940 | -81.26086 | 5933 ft | 277 kts | 100° |
| 2026-05-06 22:35 | 28.70608 | -81.23949 | 5403 ft | 274 kts | 100° |
| 2026-05-06 22:35 | 28.70278 | -81.21819 | 4862 ft | 272 kts | 100° |
| 2026-05-06 22:35 | 28.69953 | -81.19714 | 4324 ft | 269 kts | 101° |
| 2026-05-06 22:36 | 28.69632 | -81.17626 | 3784 ft | 267 kts | 101° |
| 2026-05-06 22:36 | 28.69309 | -81.15540 | 3243 ft | 264 kts | 101° |
| 2026-05-06 22:36 | 28.68739 | -81.13610 | 2967 ft | 252 kts | 127° |
| 2026-05-06 22:36 | 28.67489 | -81.12407 | 2993 ft | 227 kts | 156° |
| 2026-05-06 22:37 | 28.66007 | -81.11921 | 2947 ft | 216 kts | 174° |
| 2026-05-06 22:37 | 28.64517 | -81.12060 | 2586 ft | 216 kts | 205° |
| 2026-05-06 22:37 | 28.63385 | -81.13161 | 2510 ft | 219 kts | 237° |
| 2026-05-06 22:37 | 28.62663 | -81.14723 | 2514 ft | 222 kts | 244° |
| 2026-05-06 22:38 | 28.61994 | -81.16260 | 2482 ft | 209 kts | 243° |
| 2026-05-06 22:38 | 28.61350 | -81.17680 | 2480 ft | 193 kts | 242° |
| 2026-05-06 22:38 | 28.60740 | -81.19012 | 2488 ft | 189 kts | 242° |
| 2026-05-06 22:38 | 28.60133 | -81.20341 | 2488 ft | 190 kts | 242° |
| 2026-05-06 22:39 | 28.59528 | -81.21671 | 2487 ft | 189 kts | 242° |
| 2026-05-06 22:39 | 28.58922 | -81.23006 | 2486 ft | 189 kts | 242° |
| 2026-05-06 22:39 | 28.58309 | -81.24355 | 2495 ft | 188 kts | 242° |
| 2026-05-06 22:39 | 28.57721 | -81.25651 | 2482 ft | 180 kts | 242° |
| 2026-05-06 22:40 | 28.57150 | -81.26910 | 2486 ft | 180 kts | 242° |
| 2026-05-06 22:40 | 28.56567 | -81.28185 | 2484 ft | 180 kts | 241° |
| 2026-05-06 22:40 | 28.55836 | -81.29333 | 2485 ft | 179 kts | 220° |
| 2026-05-06 22:40 | 28.54728 | -81.29966 | 2201 ft | 179 kts | 185° |
| 2026-05-06 22:41 | 28.52462 | -81.29565 | 1725 ft | 160 kts | 181° |
| 2026-05-06 22:41 | 28.51401 | -81.29694 | 1543 ft | 147 kts | 181° |
| 2026-05-06 22:41 | 28.50365 | -81.29672 | 1369 ft | 148 kts | 175° |
| 2026-05-06 22:42 | 28.49344 | -81.29642 | 1179 ft | 147 kts | 178° |
| 2026-05-06 22:42 | 28.48304 | -81.29643 | 992 ft | 148 kts | 178° |
| 2026-05-06 22:42 | 28.47264 | -81.29627 | 801 ft | 151 kts | 178° |
| 2026-05-06 22:42 | 28.46195 | -81.29617 | 611 ft | 152 kts | 179° |
| 2026-05-06 22:43 | 28.45139 | -81.29611 | 417 ft | 151 kts | 179° |
| 2026-05-06 22:43 | 28.44095 | -81.29600 | 228 ft | 147 kts | 178° |
| 2026-05-06 22:43 | 28.43083 | -81.29581 | 91 ft | 137 kts | 179° |
| 2026-05-06 22:43 | 28.42304 | -81.29576 | 87 ft | 66 kts | 179° |
| 2026-05-06 22:44 | 28.42026 | -81.29570 | 88 ft | 21 kts | 181° |
| 2026-05-06 22:44 | 28.41851 | -81.29611 | 89 ft | 24 kts | 207° |
| 2026-05-06 22:44 | 28.41796 | -81.29745 | 89 ft | 18 kts | 288° |
| 2026-05-06 22:44 | 28.41913 | -81.29788 | 90 ft | 15 kts | 358° |
| 2026-05-06 22:45 | 28.42034 | -81.29789 | 90 ft | 16 kts | 0° |
| 2026-05-06 22:45 | 28.42168 | -81.29791 | 90 ft | 19 kts | 359° |
| 2026-05-06 22:45 | 28.42286 | -81.29792 | 89 ft | 17 kts | 359° |
| 2026-05-06 22:45 | 28.42408 | -81.29794 | 88 ft | 17 kts | 359° |
| 2026-05-06 22:46 | 28.42538 | -81.29796 | 87 ft | 19 kts | 0° |
| 2026-05-06 22:46 | 28.42668 | -81.29796 | 87 ft | 19 kts | 359° |
| 2026-05-06 22:46 | 28.42781 | -81.29797 | 89 ft | 15 kts | 360° |
| 2026-05-06 22:46 | 28.42897 | -81.29798 | 90 ft | 17 kts | 360° |
| 2026-05-06 22:47 | 28.43022 | -81.29800 | 90 ft | 18 kts | 359° |
| 2026-05-06 22:47 | 28.43135 | -81.29800 | 90 ft | 15 kts | 360° |
| 2026-05-06 22:47 | 28.43255 | -81.29801 | 90 ft | 16 kts | 359° |
| 2026-05-06 22:47 | 28.43349 | -81.29863 | 90 ft | 16 kts | 315° |
| 2026-05-06 22:48 | 28.43464 | -81.29886 | 90 ft | 16 kts | 359° |
| 2026-05-06 22:48 | 28.43586 | -81.29887 | 90 ft | 18 kts | 360° |
| 2026-05-06 22:48 | 28.43708 | -81.29896 | 90 ft | 16 kts | 349° |
| 2026-05-06 22:48 | 28.43785 | -81.29945 | 90 ft | 11 kts | 316° |
| 2026-05-06 22:49 | 28.43821 | -81.30017 | 90 ft | 10 kts | 282° |
| 2026-05-06 22:49 | 28.43824 | -81.30096 | 90 ft | 4 kts | 259° |
| 2026-05-06 22:49 | 28.43802 | -81.30145 | 90 ft | 9 kts | 236° |
| 2026-05-06 22:49 | 28.43748 | -81.30219 | 90 ft | 14 kts | 234° |
| 2026-05-06 22:50 | 28.43685 | -81.30314 | 90 ft | 14 kts | 232° |
| 2026-05-06 22:50 | 28.43615 | -81.30410 | 88 ft | 16 kts | 223° |
| 2026-05-06 22:50 | 28.43529 | -81.30459 | 87 ft | 12 kts | 184° |
| 2026-05-06 22:50 | 28.43460 | -81.30418 | 87 ft | 11 kts | 127° |
| 2026-05-06 22:51 | 28.43430 | -81.30351 | 87 ft | 6 kts | 97° |
| 2026-05-06 22:51 | 28.43443 | -81.30318 | 87 ft | 4 kts | 42° |
| 2026-05-06 22:51 | 28.43464 | -81.30302 | 87 ft | 5 kts | 30° |
| 2026-05-06 22:51 | 28.43482 | -81.30291 | 87 ft | 2 kts | 27° |
| 2026-05-06 22:52 | 28.43490 | -81.30286 | 87 ft | 0 kts | 27° |